sensor_id;sensor_type;location;lat;lon;timestamp;pressure;altitude;pressure_sealevel;temperature;humidity
2681;BME280;1350;42.134;24.708;2023-04-26T00:01:01;98436.69;;;13.61;100.00
2681;BME280;1350;42.134;24.708;2023-04-26T00:03:29;98429.28;;;13.64;100.00
2681;BME280;1350;42.134;24.708;2023-04-26T00:05:59;98425.78;;;13.64;100.00
2681;BME280;1350;42.134;24.708;2023-04-26T00:08:28;98425.31;;;13.58;100.00
2681;BME280;1350;42.134;24.708;2023-04-26T00:10:55;98428.84;;;13.59;100.00
2681;BME280;1350;42.134;24.708;2023-04-26T00:13:22;98415.63;;;13.57;100.00
2681;BME280;1350;42.134;24.708;2023-04-26T00:15:48;98414.31;;;13.52;100.00
2681;BME280;1350;42.134;24.708;2023-04-26T00:18:15;98408.50;;;13.47;100.00
2681;BME280;1350;42.134;24.708;2023-04-26T00:20:42;98408.84;;;13.53;100.00
2681;BME280;1350;42.134;24.708;2023-04-26T00:23:10;98402.50;;;13.45;100.00
2681;BME280;1350;42.134;24.708;2023-04-26T00:25:37;98398.59;;;13.49;100.00
2681;BME280;1350;42.134;24.708;2023-04-26T00:28:04;98402.38;;;13.46;100.00
2681;BME280;1350;42.134;24.708;2023-04-26T00:30:30;98405.34;;;13.53;100.00
2681;BME280;1350;42.134;24.708;2023-04-26T00:32:58;98398.81;;;13.57;100.00
2681;BME280;1350;42.134;24.708;2023-04-26T00:35:25;98399.78;;;13.56;100.00
2681;BME280;1350;42.134;24.708;2023-04-26T00:37:52;98386.25;;;13.48;100.00
2681;BME280;1350;42.134;24.708;2023-04-26T00:40:20;98385.22;;;13.60;100.00
2681;BME280;1350;42.134;24.708;2023-04-26T00:42:46;98382.81;;;13.57;100.00
2681;BME280;1350;42.134;24.708;2023-04-26T00:45:16;98378.63;;;13.54;100.00
2681;BME280;1350;42.134;24.708;2023-04-26T00:47:43;98368.31;;;13.50;100.00
2681;BME280;1350;42.134;24.708;2023-04-26T00:50:10;98364.69;;;13.51;100.00
2681;BME280;1350;42.134;24.708;2023-04-26T00:52:37;98363.00;;;13.50;100.00
2681;BME280;1350;42.134;24.708;2023-04-26T00:55:05;98365.91;;;13.47;100.00
2681;BME280;1350;42.134;24.708;2023-04-26T00:57:35;98361.31;;;13.49;100.00
2681;BME280;1350;42.134;24.708;2023-04-26T01:00:02;98365.09;;;13.46;100.00
2681;BME280;1350;42.134;24.708;2023-04-26T01:02:30;98372.22;;;13.46;100.00
2681;BME280;1350;42.134;24.708;2023-04-26T01:04:57;98362.16;;;13.49;100.00
2681;BME280;1350;42.134;24.708;2023-04-26T01:07:24;98366.75;;;13.47;100.00
2681;BME280;1350;42.134;24.708;2023-04-26T01:09:51;98365.09;;;13.46;100.00
2681;BME280;1350;42.134;24.708;2023-04-26T01:12:19;98366.41;;;13.41;100.00
2681;BME280;1350;42.134;24.708;2023-04-26T01:14:48;98363.25;;;13.47;100.00
2681;BME280;1350;42.134;24.708;2023-04-26T01:17:15;98373.31;;;13.43;100.00
2681;BME280;1350;42.134;24.708;2023-04-26T01:19:46;98369.44;;;13.47;100.00
2681;BME280;1350;42.134;24.708;2023-04-26T01:22:13;98371.75;;;13.41;100.00
2681;BME280;1350;42.134;24.708;2023-04-26T01:24:41;98367.66;;;13.37;100.00
2681;BME280;1350;42.134;24.708;2023-04-26T01:27:09;98361.59;;;13.35;100.00
2681;BME280;1350;42.134;24.708;2023-04-26T01:29:35;98355.38;;;13.25;100.00
2681;BME280;1350;42.134;24.708;2023-04-26T01:32:02;98357.91;;;13.26;100.00
2681;BME280;1350;42.134;24.708;2023-04-26T01:34:29;98356.69;;;13.19;100.00
2681;BME280;1350;42.134;24.708;2023-04-26T01:36:57;98352.84;;;13.23;100.00
2681;BME280;1350;42.134;24.708;2023-04-26T01:39:24;98353.53;;;13.25;100.00
2681;BME280;1350;42.134;24.708;2023-04-26T01:41:53;98349.94;;;13.15;100.00
2681;BME280;1350;42.134;24.708;2023-04-26T01:44:22;98338.94;;;13.20;100.00
2681;BME280;1350;42.134;24.708;2023-04-26T01:46:49;98339.97;;;13.28;100.00
2681;BME280;1350;42.134;24.708;2023-04-26T01:49:16;98338.66;;;13.23;100.00
2681;BME280;1350;42.134;24.708;2023-04-26T01:51:42;98337.13;;;13.20;100.00
2681;BME280;1350;42.134;24.708;2023-04-26T01:54:09;98339.91;;;13.19;100.00
2681;BME280;1350;42.134;24.708;2023-04-26T01:56:36;98351.84;;;13.24;100.00
2681;BME280;1350;42.134;24.708;2023-04-26T01:59:04;98347.91;;;13.19;100.00
2681;BME280;1350;42.134;24.708;2023-04-26T02:01:31;98342.19;;;13.23;100.00
2681;BME280;1350;42.134;24.708;2023-04-26T02:03:57;98341.34;;;13.23;100.00
2681;BME280;1350;42.134;24.708;2023-04-26T02:06:24;98340.66;;;13.41;100.00
2681;BME280;1350;42.134;24.708;2023-04-26T02:08:51;98359.28;;;13.41;100.00
2681;BME280;1350;42.134;24.708;2023-04-26T02:11:18;98351.69;;;13.37;100.00
2681;BME280;1350;42.134;24.708;2023-04-26T02:13:45;98350.38;;;13.31;100.00
2681;BME280;1350;42.134;24.708;2023-04-26T02:16:13;98357.59;;;13.40;100.00
2681;BME280;1350;42.134;24.708;2023-04-26T02:18:41;98355.78;;;13.41;100.00
2681;BME280;1350;42.134;24.708;2023-04-26T02:21:10;98354.13;;;13.29;100.00
2681;BME280;1350;42.134;24.708;2023-04-26T02:23:36;98358.47;;;13.30;100.00
2681;BME280;1350;42.134;24.708;2023-04-26T02:26:03;98358.25;;;13.33;100.00
2681;BME280;1350;42.134;24.708;2023-04-26T02:28:30;98363.13;;;13.17;100.00
2681;BME280;1350;42.134;24.708;2023-04-26T02:30:57;98359.06;;;13.02;100.00
2681;BME280;1350;42.134;24.708;2023-04-26T02:33:25;98359.78;;;13.04;100.00
2681;BME280;1350;42.134;24.708;2023-04-26T02:35:52;98351.94;;;12.91;100.00
2681;BME280;1350;42.134;24.708;2023-04-26T02:38:19;98366.06;;;12.92;100.00
2681;BME280;1350;42.134;24.708;2023-04-26T02:40:46;98361.25;;;12.86;100.00
2681;BME280;1350;42.134;24.708;2023-04-26T02:43:13;98360.16;;;12.88;100.00
2681;BME280;1350;42.134;24.708;2023-04-26T02:45:40;98361.25;;;12.75;100.00
2681;BME280;1350;42.134;24.708;2023-04-26T02:48:08;98369.59;;;12.70;100.00
2681;BME280;1350;42.134;24.708;2023-04-26T02:50:36;98365.50;;;12.66;100.00
2681;BME280;1350;42.134;24.708;2023-04-26T02:53:02;98365.88;;;12.62;100.00
2681;BME280;1350;42.134;24.708;2023-04-26T02:55:29;98369.59;;;12.70;100.00
2681;BME280;1350;42.134;24.708;2023-04-26T02:57:56;98370.56;;;12.80;100.00
2681;BME280;1350;42.134;24.708;2023-04-26T03:00:23;98369.72;;;12.80;100.00
2681;BME280;1350;42.134;24.708;2023-04-26T03:02:50;98368.53;;;12.73;100.00
2681;BME280;1350;42.134;24.708;2023-04-26T03:05:17;98357.28;;;12.69;100.00
2681;BME280;1350;42.134;24.708;2023-04-26T03:07:45;98353.19;;;12.65;100.00
2681;BME280;1350;42.134;24.708;2023-04-26T03:10:12;98346.78;;;12.68;100.00
2681;BME280;1350;42.134;24.708;2023-04-26T03:12:39;98345.78;;;12.69;100.00
2681;BME280;1350;42.134;24.708;2023-04-26T03:15:06;98345.31;;;12.75;100.00
2681;BME280;1350;42.134;24.708;2023-04-26T03:17:33;98337.19;;;12.76;100.00
2681;BME280;1350;42.134;24.708;2023-04-26T03:20:00;98341.81;;;12.74;100.00
2681;BME280;1350;42.134;24.708;2023-04-26T03:22:28;98343.88;;;12.71;100.00
2681;BME280;1350;42.134;24.708;2023-04-26T03:24:57;98348.69;;;12.66;100.00
2681;BME280;1350;42.134;24.708;2023-04-26T03:27:24;98343.50;;;12.64;100.00
2681;BME280;1350;42.134;24.708;2023-04-26T03:29:51;98341.22;;;12.60;100.00
2681;BME280;1350;42.134;24.708;2023-04-26T03:32:18;98344.75;;;12.60;100.00
2681;BME280;1350;42.134;24.708;2023-04-26T03:34:44;98348.00;;;12.53;100.00
2681;BME280;1350;42.134;24.708;2023-04-26T03:37:13;98356.94;;;12.52;100.00
2681;BME280;1350;42.134;24.708;2023-04-26T03:39:39;98355.50;;;12.37;100.00
2681;BME280;1350;42.134;24.708;2023-04-26T03:42:08;98360.44;;;12.30;100.00
2681;BME280;1350;42.134;24.708;2023-04-26T03:44:34;98359.50;;;12.20;100.00
2681;BME280;1350;42.134;24.708;2023-04-26T03:47:01;98363.25;;;12.18;100.00
2681;BME280;1350;42.134;24.708;2023-04-26T03:49:29;98363.84;;;12.21;100.00
2681;BME280;1350;42.134;24.708;2023-04-26T03:51:56;98371.09;;;12.30;100.00
2681;BME280;1350;42.134;24.708;2023-04-26T03:54:23;98379.53;;;12.35;100.00
2681;BME280;1350;42.134;24.708;2023-04-26T03:56:50;98386.09;;;12.42;100.00
2681;BME280;1350;42.134;24.708;2023-04-26T03:59:18;98391.03;;;12.36;100.00
2681;BME280;1350;42.134;24.708;2023-04-26T04:01:45;98382.31;;;12.34;100.00
2681;BME280;1350;42.134;24.708;2023-04-26T04:04:12;98384.00;;;12.35;100.00
2681;BME280;1350;42.134;24.708;2023-04-26T04:06:38;98387.78;;;12.43;100.00
2681;BME280;1350;42.134;24.708;2023-04-26T04:09:05;98396.34;;;12.58;100.00
2681;BME280;1350;42.134;24.708;2023-04-26T04:11:32;98392.97;;;12.67;100.00
2681;BME280;1350;42.134;24.708;2023-04-26T04:13:59;98390.25;;;12.89;100.00
2681;BME280;1350;42.134;24.708;2023-04-26T04:16:27;98379.38;;;13.03;100.00
2681;BME280;1350;42.134;24.708;2023-04-26T04:18:53;98393.28;;;13.17;100.00
2681;BME280;1350;42.134;24.708;2023-04-26T04:21:23;98384.41;;;13.28;100.00
2681;BME280;1350;42.134;24.708;2023-04-26T04:23:50;98383.66;;;13.26;100.00
2681;BME280;1350;42.134;24.708;2023-04-26T04:26:17;98380.28;;;13.24;100.00
2681;BME280;1350;42.134;24.708;2023-04-26T04:28:45;98381.38;;;13.53;100.00
2681;BME280;1350;42.134;24.708;2023-04-26T04:31:13;98385.88;;;13.52;100.00
2681;BME280;1350;42.134;24.708;2023-04-26T04:33:41;98392.66;;;13.45;100.00
2681;BME280;1350;42.134;24.708;2023-04-26T04:36:08;98393.81;;;13.64;100.00
2681;BME280;1350;42.134;24.708;2023-04-26T04:38:35;98393.25;;;13.81;100.00
2681;BME280;1350;42.134;24.708;2023-04-26T04:41:02;98397.75;;;14.01;100.00
2681;BME280;1350;42.134;24.708;2023-04-26T04:43:29;98400.19;;;14.13;100.00
2681;BME280;1350;42.134;24.708;2023-04-26T04:45:55;98400.38;;;14.21;100.00
2681;BME280;1350;42.134;24.708;2023-04-26T04:48:22;98391.22;;;14.35;100.00
2681;BME280;1350;42.134;24.708;2023-04-26T04:50:51;98399.59;;;14.90;100.00
2681;BME280;1350;42.134;24.708;2023-04-26T04:53:17;98393.78;;;15.35;100.00
2681;BME280;1350;42.134;24.708;2023-04-26T04:55:44;98396.78;;;15.51;100.00
2681;BME280;1350;42.134;24.708;2023-04-26T04:58:11;98402.00;;;15.71;100.00
2681;BME280;1350;42.134;24.708;2023-04-26T05:00:39;98400.25;;;16.08;100.00
2681;BME280;1350;42.134;24.708;2023-04-26T05:03:05;98395.06;;;16.62;100.00
2681;BME280;1350;42.134;24.708;2023-04-26T05:05:34;98394.44;;;17.32;100.00
2681;BME280;1350;42.134;24.708;2023-04-26T05:08:02;98405.81;;;17.96;100.00
2681;BME280;1350;42.134;24.708;2023-04-26T05:10:29;98406.22;;;18.44;99.45
2681;BME280;1350;42.134;24.708;2023-04-26T05:12:55;98406.94;;;18.88;96.94
2681;BME280;1350;42.134;24.708;2023-04-26T05:15:22;98403.44;;;18.88;94.04
2681;BME280;1350;42.134;24.708;2023-04-26T05:17:49;98393.66;;;18.53;95.20
2681;BME280;1350;42.134;24.708;2023-04-26T05:20:16;98396.88;;;18.57;96.16
2681;BME280;1350;42.134;24.708;2023-04-26T05:22:43;98395.09;;;18.99;96.37
2681;BME280;1350;42.134;24.708;2023-04-26T05:25:11;98398.13;;;19.04;92.14
2681;BME280;1350;42.134;24.708;2023-04-26T05:27:41;98395.22;;;18.56;92.04
2681;BME280;1350;42.134;24.708;2023-04-26T05:30:10;98395.94;;;18.22;93.78
2681;BME280;1350;42.134;24.708;2023-04-26T05:32:37;98405.41;;;18.34;94.82
2681;BME280;1350;42.134;24.708;2023-04-26T05:35:04;98399.06;;;18.35;92.68
2681;BME280;1350;42.134;24.708;2023-04-26T05:37:31;98401.16;;;18.41;91.90
2681;BME280;1350;42.134;24.708;2023-04-26T05:39:58;98400.22;;;18.33;92.94
2681;BME280;1350;42.134;24.708;2023-04-26T05:42:27;98401.72;;;18.10;92.57
2681;BME280;1350;42.134;24.708;2023-04-26T05:44:56;98404.28;;;18.37;93.13
2681;BME280;1350;42.134;24.708;2023-04-26T05:47:23;98397.66;;;18.75;90.95
2681;BME280;1350;42.134;24.708;2023-04-26T05:49:50;98401.38;;;19.15;89.52
2681;BME280;1350;42.134;24.708;2023-04-26T05:52:16;98399.84;;;19.21;83.39
2681;BME280;1350;42.134;24.708;2023-04-26T05:54:43;98395.59;;;19.02;81.38
2681;BME280;1350;42.134;24.708;2023-04-26T05:57:10;98403.31;;;19.05;81.21
2681;BME280;1350;42.134;24.708;2023-04-26T05:59:39;98405.84;;;18.99;81.81
2681;BME280;1350;42.134;24.708;2023-04-26T06:02:05;98401.88;;;19.19;79.74
2681;BME280;1350;42.134;24.708;2023-04-26T06:04:32;98402.47;;;18.97;79.08
2681;BME280;1350;42.134;24.708;2023-04-26T06:06:59;98398.22;;;18.61;81.95
2681;BME280;1350;42.134;24.708;2023-04-26T06:09:26;98399.13;;;18.69;81.75
2681;BME280;1350;42.134;24.708;2023-04-26T06:11:53;98397.63;;;19.00;80.78
2681;BME280;1350;42.134;24.708;2023-04-26T06:14:19;98405.09;;;18.89;79.29
2681;BME280;1350;42.134;24.708;2023-04-26T06:16:49;98402.00;;;18.68;81.27
2681;BME280;1350;42.134;24.708;2023-04-26T06:19:16;98404.66;;;18.68;79.13
2681;BME280;1350;42.134;24.708;2023-04-26T06:21:43;98406.72;;;18.74;76.90
2681;BME280;1350;42.134;24.708;2023-04-26T06:24:09;98404.88;;;18.48;77.79
2681;BME280;1350;42.134;24.708;2023-04-26T06:26:39;98405.41;;;17.91;82.47
2681;BME280;1350;42.134;24.708;2023-04-26T06:29:06;98405.59;;;18.84;82.77
2681;BME280;1350;42.134;24.708;2023-04-26T06:31:33;98407.13;;;19.94;79.75
2681;BME280;1350;42.134;24.708;2023-04-26T06:34:01;98397.34;;;19.85;75.29
2681;BME280;1350;42.134;24.708;2023-04-26T06:36:28;98404.53;;;19.52;78.75
2681;BME280;1350;42.134;24.708;2023-04-26T06:38:55;98403.72;;;19.68;79.86
2681;BME280;1350;42.134;24.708;2023-04-26T06:41:22;98394.84;;;20.07;77.82
2681;BME280;1350;42.134;24.708;2023-04-26T06:43:51;98401.41;;;19.97;81.25
2681;BME280;1350;42.134;24.708;2023-04-26T06:46:18;98400.72;;;20.03;75.55
2681;BME280;1350;42.134;24.708;2023-04-26T06:48:45;98395.63;;;19.76;73.90
2681;BME280;1350;42.134;24.708;2023-04-26T06:51:15;98400.69;;;19.79;74.49
2681;BME280;1350;42.134;24.708;2023-04-26T06:53:42;98396.97;;;19.64;78.56
2681;BME280;1350;42.134;24.708;2023-04-26T06:56:09;98393.94;;;19.67;82.40
2681;BME280;1350;42.134;24.708;2023-04-26T06:58:35;98387.44;;;19.93;83.25
2681;BME280;1350;42.134;24.708;2023-04-26T07:01:02;98388.81;;;20.14;81.23
2681;BME280;1350;42.134;24.708;2023-04-26T07:03:30;98393.47;;;20.11;76.34
2681;BME280;1350;42.134;24.708;2023-04-26T07:05:58;98396.94;;;19.56;75.53
2681;BME280;1350;42.134;24.708;2023-04-26T07:08:26;98396.69;;;19.17;79.93
2681;BME280;1350;42.134;24.708;2023-04-26T07:10:53;98392.22;;;19.34;80.16
2681;BME280;1350;42.134;24.708;2023-04-26T07:13:19;98400.63;;;19.47;79.08
2681;BME280;1350;42.134;24.708;2023-04-26T07:15:46;98409.69;;;19.38;76.99
2681;BME280;1350;42.134;24.708;2023-04-26T07:18:13;98401.19;;;19.17;79.64
2681;BME280;1350;42.134;24.708;2023-04-26T07:20:40;98407.00;;;19.38;78.93
2681;BME280;1350;42.134;24.708;2023-04-26T07:23:06;98406.53;;;19.50;79.86
2681;BME280;1350;42.134;24.708;2023-04-26T07:25:34;98412.47;;;19.78;80.67
2681;BME280;1350;42.134;24.708;2023-04-26T07:28:01;98412.75;;;19.43;74.81
2681;BME280;1350;42.134;24.708;2023-04-26T07:30:28;98417.44;;;19.41;78.55
2681;BME280;1350;42.134;24.708;2023-04-26T07:32:56;98412.91;;;19.41;79.22
2681;BME280;1350;42.134;24.708;2023-04-26T07:35:23;98406.91;;;19.79;79.14
2681;BME280;1350;42.134;24.708;2023-04-26T07:37:50;98410.78;;;19.69;74.21
2681;BME280;1350;42.134;24.708;2023-04-26T07:40:17;98423.69;;;19.08;73.10
2681;BME280;1350;42.134;24.708;2023-04-26T07:42:45;98421.22;;;18.89;80.50
2681;BME280;1350;42.134;24.708;2023-04-26T07:45:12;98419.75;;;18.94;85.31
2681;BME280;1350;42.134;24.708;2023-04-26T07:47:39;98416.66;;;19.23;83.27
2681;BME280;1350;42.134;24.708;2023-04-26T07:50:07;98417.19;;;18.85;83.01
2681;BME280;1350;42.134;24.708;2023-04-26T07:52:34;98420.38;;;18.88;81.97
2681;BME280;1350;42.134;24.708;2023-04-26T07:55:01;98419.91;;;18.93;81.88
2681;BME280;1350;42.134;24.708;2023-04-26T07:57:27;98418.25;;;19.00;80.42
2681;BME280;1350;42.134;24.708;2023-04-26T07:59:56;98420.34;;;19.14;81.03
2681;BME280;1350;42.134;24.708;2023-04-26T08:02:23;98415.94;;;19.13;81.28
2681;BME280;1350;42.134;24.708;2023-04-26T08:04:50;98418.19;;;19.17;81.21
2681;BME280;1350;42.134;24.708;2023-04-26T08:07:19;98416.78;;;19.13;78.03
2681;BME280;1350;42.134;24.708;2023-04-26T08:09:46;98411.75;;;19.52;78.82
2681;BME280;1350;42.134;24.708;2023-04-26T08:12:13;98400.56;;;20.04;80.78
2681;BME280;1350;42.134;24.708;2023-04-26T08:14:40;98401.88;;;20.49;81.10
2681;BME280;1350;42.134;24.708;2023-04-26T08:17:08;98408.06;;;20.73;70.71
2681;BME280;1350;42.134;24.708;2023-04-26T08:19:35;98402.41;;;21.07;67.34
2681;BME280;1350;42.134;24.708;2023-04-26T08:22:02;98398.44;;;21.25;65.00
2681;BME280;1350;42.134;24.708;2023-04-26T08:24:30;98399.66;;;21.53;66.72
2681;BME280;1350;42.134;24.708;2023-04-26T08:26:56;98396.56;;;21.34;62.69
2681;BME280;1350;42.134;24.708;2023-04-26T08:29:26;98388.72;;;21.16;59.98
2681;BME280;1350;42.134;24.708;2023-04-26T08:31:53;98387.50;;;21.27;61.92
2681;BME280;1350;42.134;24.708;2023-04-26T08:34:21;98391.47;;;21.39;58.32
2681;BME280;1350;42.134;24.708;2023-04-26T08:36:47;98383.34;;;21.16;57.48
2681;BME280;1350;42.134;24.708;2023-04-26T08:39:14;98383.09;;;20.95;57.94
2681;BME280;1350;42.134;24.708;2023-04-26T08:41:43;98382.59;;;20.84;59.52
2681;BME280;1350;42.134;24.708;2023-04-26T08:44:10;98387.47;;;20.96;59.63
2681;BME280;1350;42.134;24.708;2023-04-26T08:46:41;98393.72;;;20.97;58.18
2681;BME280;1350;42.134;24.708;2023-04-26T08:49:24;98386.63;;;20.96;59.27
2681;BME280;1350;42.134;24.708;2023-04-26T08:51:57;98379.78;;;21.16;59.73
2681;BME280;1350;42.134;24.708;2023-04-26T08:54:25;98383.41;;;21.00;53.86
2681;BME280;1350;42.134;24.708;2023-04-26T08:56:54;98378.53;;;20.96;54.53
2681;BME280;1350;42.134;24.708;2023-04-26T08:59:24;98377.69;;;20.87;54.81
2681;BME280;1350;42.134;24.708;2023-04-26T09:01:52;98382.13;;;21.19;52.79
2681;BME280;1350;42.134;24.708;2023-04-26T09:04:19;98392.88;;;21.57;54.67
2681;BME280;1350;42.134;24.708;2023-04-26T09:06:46;98376.44;;;22.20;53.47
2681;BME280;1350;42.134;24.708;2023-04-26T09:09:17;98376.06;;;22.38;54.11
2681;BME280;1350;42.134;24.708;2023-04-26T09:11:52;98377.06;;;22.59;51.21
2681;BME280;1350;42.134;24.708;2023-04-26T09:14:20;98372.97;;;22.78;51.45
2681;BME280;1350;42.134;24.708;2023-04-26T09:16:46;98378.09;;;22.73;50.53
2681;BME280;1350;42.134;24.708;2023-04-26T09:19:13;98374.38;;;23.03;51.68
2681;BME280;1350;42.134;24.708;2023-04-26T09:21:42;98368.69;;;22.69;50.26
2681;BME280;1350;42.134;24.708;2023-04-26T09:24:10;98368.63;;;22.40;52.85
2681;BME280;1350;42.134;24.708;2023-04-26T09:26:38;98366.72;;;22.63;53.82
2681;BME280;1350;42.134;24.708;2023-04-26T09:29:12;98368.03;;;22.52;51.94
2681;BME280;1350;42.134;24.708;2023-04-26T09:31:41;98370.44;;;22.62;51.62
2681;BME280;1350;42.134;24.708;2023-04-26T09:34:09;98374.53;;;22.58;51.21
2681;BME280;1350;42.134;24.708;2023-04-26T09:36:47;98372.22;;;22.55;53.81
2681;BME280;1350;42.134;24.708;2023-04-26T09:39:14;98358.03;;;22.53;53.05
2681;BME280;1350;42.134;24.708;2023-04-26T09:41:43;98363.31;;;22.32;52.38
2681;BME280;1350;42.134;24.708;2023-04-26T09:44:22;98357.78;;;22.11;52.78
2681;BME280;1350;42.134;24.708;2023-04-26T09:47:00;98358.22;;;22.14;53.00
2681;BME280;1350;42.134;24.708;2023-04-26T09:49:27;98359.19;;;22.21;53.17
2681;BME280;1350;42.134;24.708;2023-04-26T09:52:01;98353.91;;;22.42;53.49
2681;BME280;1350;42.134;24.708;2023-04-26T09:54:46;98363.22;;;22.03;54.89
2681;BME280;1350;42.134;24.708;2023-04-26T09:57:16;98352.94;;;22.72;53.60
2681;BME280;1350;42.134;24.708;2023-04-26T09:59:45;98354.78;;;23.01;50.97
2681;BME280;1350;42.134;24.708;2023-04-26T10:02:17;98348.56;;;22.86;52.57
2681;BME280;1350;42.134;24.708;2023-04-26T10:04:46;98341.44;;;23.50;52.22
2681;BME280;1350;42.134;24.708;2023-04-26T10:07:14;98340.41;;;24.07;49.45
2681;BME280;1350;42.134;24.708;2023-04-26T10:09:42;98338.00;;;23.98;47.22
2681;BME280;1350;42.134;24.708;2023-04-26T10:12:10;98329.69;;;23.78;46.82
2681;BME280;1350;42.134;24.708;2023-04-26T10:14:38;98317.50;;;23.68;48.78
2681;BME280;1350;42.134;24.708;2023-04-26T10:17:06;98327.50;;;23.67;49.41
2681;BME280;1350;42.134;24.708;2023-04-26T10:19:33;98325.41;;;23.12;48.78
2681;BME280;1350;42.134;24.708;2023-04-26T10:22:04;98326.56;;;22.89;48.65
2681;BME280;1350;42.134;24.708;2023-04-26T10:24:33;98328.06;;;22.25;49.00
2681;BME280;1350;42.134;24.708;2023-04-26T10:27:00;98321.94;;;22.17;49.48
2681;BME280;1350;42.134;24.708;2023-04-26T10:32:30;98334.06;;;21.30;51.03
2681;BME280;1350;42.134;24.708;2023-04-26T10:35:09;98318.13;;;20.74;51.63
2681;BME280;1350;42.134;24.708;2023-04-26T10:37:36;98324.50;;;20.27;52.70
2681;BME280;1350;42.134;24.708;2023-04-26T10:40:24;98335.63;;;19.91;53.89
2681;BME280;1350;42.134;24.708;2023-04-26T10:43:28;98324.19;;;19.65;54.47
2681;BME280;1350;42.134;24.708;2023-04-26T10:45:56;98330.91;;;19.53;54.67
2681;BME280;1350;42.134;24.708;2023-04-26T10:48:29;98331.38;;;19.33;54.37
2681;BME280;1350;42.134;24.708;2023-04-26T10:51:06;98327.28;;;19.21;55.42
2681;BME280;1350;42.134;24.708;2023-04-26T10:53:57;98331.94;;;19.03;55.33
2681;BME280;1350;42.134;24.708;2023-04-26T10:56:51;98326.84;;;18.76;55.24
2681;BME280;1350;42.134;24.708;2023-04-26T10:59:19;98332.50;;;18.65;57.90
2681;BME280;1350;42.134;24.708;2023-04-26T11:01:46;98335.50;;;18.62;57.92
2681;BME280;1350;42.134;24.708;2023-04-26T11:04:15;98334.66;;;18.35;58.19
2681;BME280;1350;42.134;24.708;2023-04-26T11:06:49;98340.59;;;18.21;60.17
2681;BME280;1350;42.134;24.708;2023-04-26T11:09:32;98333.66;;;18.11;61.58
2681;BME280;1350;42.134;24.708;2023-04-26T11:12:00;98334.69;;;18.18;62.24
2681;BME280;1350;42.134;24.708;2023-04-26T11:14:27;98318.72;;;18.08;63.29
2681;BME280;1350;42.134;24.708;2023-04-26T11:16:55;98326.50;;;18.19;64.39
2681;BME280;1350;42.134;24.708;2023-04-26T11:19:23;98331.31;;;18.16;62.22
2681;BME280;1350;42.134;24.708;2023-04-26T11:21:49;98339.53;;;18.14;62.15
2681;BME280;1350;42.134;24.708;2023-04-26T11:24:23;98337.28;;;18.27;63.54
2681;BME280;1350;42.134;24.708;2023-04-26T11:26:50;98333.75;;;18.27;62.19
2681;BME280;1350;42.134;24.708;2023-04-26T11:29:18;98333.69;;;18.19;62.19
2681;BME280;1350;42.134;24.708;2023-04-26T11:31:51;98338.78;;;18.22;61.57
2681;BME280;1350;42.134;24.708;2023-04-26T11:34:20;98343.03;;;18.32;60.87
2681;BME280;1350;42.134;24.708;2023-04-26T11:36:50;98343.13;;;18.23;60.50
2681;BME280;1350;42.134;24.708;2023-04-26T11:39:19;98332.88;;;18.18;60.51
2681;BME280;1350;42.134;24.708;2023-04-26T11:41:47;98340.13;;;18.26;58.52
2681;BME280;1350;42.134;24.708;2023-04-26T11:44:17;98332.03;;;18.18;59.59
2681;BME280;1350;42.134;24.708;2023-04-26T11:46:45;98347.00;;;18.28;59.00
2681;BME280;1350;42.134;24.708;2023-04-26T11:49:13;98353.88;;;18.23;59.86
2681;BME280;1350;42.134;24.708;2023-04-26T11:51:40;98353.66;;;18.16;60.56
2681;BME280;1350;42.134;24.708;2023-04-26T11:54:09;98362.47;;;18.09;60.43
2681;BME280;1350;42.134;24.708;2023-04-26T11:56:36;98361.84;;;18.15;61.21
2681;BME280;1350;42.134;24.708;2023-04-26T11:59:07;98370.28;;;18.20;62.12
2681;BME280;1350;42.134;24.708;2023-04-26T12:01:35;98358.38;;;18.22;61.54
2681;BME280;1350;42.134;24.708;2023-04-26T12:04:02;98366.22;;;18.16;60.45
2681;BME280;1350;42.134;24.708;2023-04-26T12:06:41;98363.03;;;18.12;60.53
2681;BME280;1350;42.134;24.708;2023-04-26T12:09:10;98366.75;;;18.19;60.62
2681;BME280;1350;42.134;24.708;2023-04-26T12:11:37;98368.22;;;18.14;59.33
2681;BME280;1350;42.134;24.708;2023-04-26T12:14:04;98368.41;;;18.20;60.55
2681;BME280;1350;42.134;24.708;2023-04-26T12:16:34;98367.28;;;18.23;60.83
2681;BME280;1350;42.134;24.708;2023-04-26T12:19:03;98356.44;;;18.32;60.93
2681;BME280;1350;42.134;24.708;2023-04-26T12:21:39;98358.75;;;18.45;60.61
2681;BME280;1350;42.134;24.708;2023-04-26T12:24:06;98360.63;;;18.53;58.04
2681;BME280;1350;42.134;24.708;2023-04-26T12:26:42;98359.66;;;18.62;57.61
2681;BME280;1350;42.134;24.708;2023-04-26T12:29:09;98356.69;;;18.73;57.16
2681;BME280;1350;42.134;24.708;2023-04-26T12:31:36;98352.44;;;18.62;56.27
2681;BME280;1350;42.134;24.708;2023-04-26T12:34:03;98360.25;;;18.48;55.64
2681;BME280;1350;42.134;24.708;2023-04-26T12:36:30;98363.28;;;18.27;56.31
2681;BME280;1350;42.134;24.708;2023-04-26T12:38:57;98358.44;;;18.30;55.73
2681;BME280;1350;42.134;24.708;2023-04-26T12:41:26;98359.94;;;18.25;56.05
2681;BME280;1350;42.134;24.708;2023-04-26T12:43:54;98361.59;;;18.26;57.27
2681;BME280;1350;42.134;24.708;2023-04-26T12:46:21;98362.19;;;18.37;57.32
2681;BME280;1350;42.134;24.708;2023-04-26T12:48:48;98367.59;;;18.20;58.44
2681;BME280;1350;42.134;24.708;2023-04-26T12:51:14;98366.66;;;18.29;58.76
2681;BME280;1350;42.134;24.708;2023-04-26T12:53:41;98358.63;;;18.11;60.82
2681;BME280;1350;42.134;24.708;2023-04-26T12:56:08;98355.53;;;18.24;63.01
2681;BME280;1350;42.134;24.708;2023-04-26T12:58:34;98365.59;;;18.22;62.53
2681;BME280;1350;42.134;24.708;2023-04-26T13:01:03;98355.00;;;18.20;62.88
2681;BME280;1350;42.134;24.708;2023-04-26T13:03:29;98357.59;;;18.30;62.92
2681;BME280;1350;42.134;24.708;2023-04-26T13:05:56;98351.75;;;18.34;65.86
2681;BME280;1350;42.134;24.708;2023-04-26T13:08:23;98347.66;;;18.22;60.39
2681;BME280;1350;42.134;24.708;2023-04-26T13:10:50;98355.59;;;18.06;61.08
2681;BME280;1350;42.134;24.708;2023-04-26T13:13:16;98355.44;;;18.08;60.30
2681;BME280;1350;42.134;24.708;2023-04-26T13:15:44;98354.78;;;17.88;60.02